createdAt,value
2022-08-22T00:00:15.304Z,101913.47
2022-08-22T00:02:47.891Z,101820.13
2022-08-22T00:02:57.073Z,101851.53
2022-08-22T00:06:00.275Z,101901.31
2022-08-22T00:08:32.621Z,101908.84
2022-08-22T00:11:24.973Z,101898.28
2022-08-22T00:14:12.970Z,101907.94
2022-08-22T00:16:53.494Z,101902.03
2022-08-22T00:19:20.163Z,101904.75
2022-08-22T00:21:53.494Z,101906.25
2022-08-22T00:24:38.323Z,101907.25
2022-08-22T00:27:10.423Z,101907.63
2022-08-22T00:29:47.812Z,101906.72
2022-08-22T00:32:27.012Z,101901.78
2022-08-22T00:35:03.817Z,101901.50
2022-08-22T00:37:38.513Z,101899.09
2022-08-22T00:40:42.391Z,101902.16
2022-08-22T00:43:45.471Z,101911.19
2022-08-22T00:46:33.364Z,101906.84
2022-08-22T00:49:05.733Z,101903.50
2022-08-22T00:52:06.127Z,101906.84
2022-08-22T00:55:06.651Z,101912.16
2022-08-22T00:57:59.390Z,101908.31
2022-08-22T01:00:35.061Z,101889.47
2022-08-22T01:03:33.758Z,101907.00
2022-08-22T01:06:32.407Z,101907.00
2022-08-22T01:09:15.635Z,101906.03
2022-08-22T01:12:17.608Z,101912.97
2022-08-22T01:14:50.004Z,101909.41
2022-08-22T01:17:25.280Z,101911.84
2022-08-22T01:20:07.176Z,101915.78
2022-08-22T01:23:10.916Z,101910.28
2022-08-22T01:25:57.027Z,101918.97
2022-08-22T01:28:44.800Z,101923.25
2022-08-22T01:31:49.760Z,101920.53
2022-08-22T01:34:53.707Z,101920.09
2022-08-22T01:37:35.329Z,101928.66
2022-08-22T01:40:32.365Z,101925.28
2022-08-22T01:43:20.755Z,101940.91
2022-08-22T01:46:31.451Z,101939.38
2022-08-22T01:49:29.168Z,101946.78
2022-08-22T01:52:01.761Z,101937.47
2022-08-22T01:54:55.751Z,101933.38
2022-08-22T01:57:24.431Z,101936.38
2022-08-22T01:59:54.075Z,101943.09
2022-08-22T02:02:34.314Z,101934.69
2022-08-22T02:05:24.560Z,101937.88
2022-08-22T02:08:17.307Z,101946.91
2022-08-22T02:11:07.060Z,101949.78
2022-08-22T02:13:42.165Z,101964.06
2022-08-22T02:16:17.779Z,101954.19
2022-08-22T02:19:06.098Z,101957.94
2022-08-22T02:21:41.324Z,101954.66
2022-08-22T02:24:44.659Z,101958.44
2022-08-22T02:27:17.534Z,101949.63
2022-08-22T02:29:52.828Z,101942.16
2022-08-22T02:32:28.040Z,101941.19
2022-08-22T02:35:06.433Z,101939.34
2022-08-22T02:37:35.694Z,101938.38
2022-08-22T02:40:09.728Z,101945.19
2022-08-22T02:42:48.767Z,101933.50
2022-08-22T02:45:29.572Z,101926.72
2022-08-22T02:48:27.894Z,101934.97
2022-08-22T02:50:57.941Z,101934.22
2022-08-22T02:53:50.034Z,101934.22
2022-08-22T02:56:23.659Z,101939.84
2022-08-22T02:58:57.005Z,101936.53
2022-08-22T03:01:40.766Z,101936.94
2022-08-22T03:04:31.844Z,101934.38
2022-08-22T03:06:58.175Z,101931.84
2022-08-22T03:09:34.644Z,101929.53
2022-08-22T03:12:25.328Z,101925.84
2022-08-22T03:15:11.822Z,101936.00
2022-08-22T03:18:05.804Z,101908.34
2022-08-22T03:20:45.405Z,101922.31
2022-08-22T03:23:31.144Z,101907.31
2022-08-22T03:26:19.936Z,101924.56
2022-08-22T03:29:08.888Z,101927.25
2022-08-22T03:31:36.393Z,101926.59
2022-08-22T03:34:16.980Z,101931.75
2022-08-22T03:37:15.787Z,101918.06
2022-08-22T03:39:45.335Z,101931.03
2022-08-22T03:42:55.855Z,101925.56
2022-08-22T03:45:59.815Z,101919.69
2022-08-22T03:48:52.685Z,101912.25
2022-08-22T03:51:52.664Z,101913.13
2022-08-22T03:54:50.407Z,101917.22
2022-08-22T03:57:40.100Z,101905.69
2022-08-22T04:00:24.627Z,101922.59
2022-08-22T04:03:22.605Z,101914.13
2022-08-22T04:06:11.586Z,101923.22
2022-08-22T04:09:29.998Z,101924.44
2022-08-22T04:12:26.149Z,101929.34
2022-08-22T04:15:31.233Z,101932.41
2022-08-22T04:18:31.248Z,101932.75
2022-08-22T04:21:12.994Z,101927.69
2022-08-22T04:24:02.275Z,101914.53
2022-08-22T04:26:43.713Z,101926.22
2022-08-22T04:29:59.710Z,101922.56
2022-08-22T04:32:36.509Z,101928.94
2022-08-22T04:35:18.873Z,101924.50
2022-08-22T04:37:52.065Z,101942.44
2022-08-22T04:40:27.742Z,101934.97
2022-08-22T04:43:00.884Z,101940.03
2022-08-22T04:45:37.244Z,101943.91
2022-08-22T04:48:09.567Z,101946.06
2022-08-22T04:50:51.656Z,101952.13
2022-08-22T04:53:35.408Z,101952.09
2022-08-22T04:56:16.402Z,101948.78
2022-08-22T04:58:54.358Z,101947.22
2022-08-22T05:01:40.870Z,101953.16
2022-08-22T05:04:20.245Z,101944.69
2022-08-22T05:07:15.752Z,101943.84
2022-08-22T05:09:56.431Z,101962.50
2022-08-22T05:12:31.763Z,101955.13
2022-08-22T05:15:06.153Z,101959.25
2022-08-22T05:17:37.416Z,101954.91
2022-08-22T05:20:08.946Z,101958.22
2022-08-22T05:22:40.667Z,101943.16
2022-08-22T05:25:19.784Z,101958.25
2022-08-22T05:27:53.296Z,101956.31
2022-08-22T05:30:27.817Z,101955.38
2022-08-22T05:33:12.544Z,101958.66
2022-08-22T05:35:52.429Z,101958.94
2022-08-22T05:38:25.861Z,101957.28
2022-08-22T05:40:59.792Z,101952.78
2022-08-22T05:43:27.097Z,101956.34
2022-08-22T05:45:58.049Z,101948.41
2022-08-22T05:48:39.270Z,101958.38
2022-08-22T05:51:31.347Z,101950.88
2022-08-22T05:54:11.147Z,101947.81
2022-08-22T05:56:45.882Z,101941.81
2022-08-22T05:59:27.671Z,101937.88
2022-08-22T06:02:05.992Z,101954.53
2022-08-22T06:04:45.464Z,101954.16
2022-08-22T06:07:21.192Z,101956.50
2022-08-22T06:09:47.609Z,101959.38
2022-08-22T06:12:22.560Z,101953.13
2022-08-22T06:15:00.744Z,101954.00
2022-08-22T06:17:33.564Z,101952.75
2022-08-22T06:20:00.383Z,101963.03
2022-08-22T06:22:36.828Z,101960.03
2022-08-22T06:25:18.494Z,101968.16
2022-08-22T06:27:49.112Z,101970.31
2022-08-22T06:30:17.729Z,101960.09
2022-08-22T06:32:59.865Z,101971.41
2022-08-22T06:35:52.134Z,101970.81
2022-08-22T06:38:20.435Z,101972.25
2022-08-22T06:40:49.195Z,101969.03
2022-08-22T06:43:17.192Z,101971.41
2022-08-22T06:45:44.084Z,101973.88
2022-08-22T06:48:16.475Z,101977.09
2022-08-22T06:50:45.340Z,101974.28
2022-08-22T06:53:19.631Z,101975.53
2022-08-22T06:55:52.987Z,101979.03
2022-08-22T06:58:39.759Z,101953.53
2022-08-22T07:01:14.031Z,101959.53
2022-08-22T07:03:45.177Z,101980.19
2022-08-22T07:06:18.393Z,101978.97
2022-08-22T07:08:45.064Z,101958.50
2022-08-22T07:11:25.968Z,101964.47
2022-08-22T07:14:03.465Z,101964.47
2022-08-22T07:17:08.235Z,101965.25
2022-08-22T07:19:39.399Z,101961.28
2022-08-22T07:22:23.339Z,101960.00
2022-08-22T07:24:57.984Z,101960.38
2022-08-22T07:27:48.930Z,101970.50
2022-08-22T07:30:27.256Z,101956.44
2022-08-22T07:33:23.692Z,101965.41
2022-08-22T07:35:53.752Z,101967.13
2022-08-22T07:38:43.119Z,101960.94
2022-08-22T07:41:20.955Z,101953.94
2022-08-22T07:44:08.839Z,101960.56
2022-08-22T07:46:41.200Z,101951.47
2022-08-22T07:49:17.397Z,101939.59
2022-08-22T07:51:47.743Z,101960.44
2022-08-22T07:54:20.092Z,101958.19
2022-08-22T07:57:09.514Z,101943.31
2022-08-22T07:59:38.097Z,101955.38
2022-08-22T08:02:10.739Z,101953.44
2022-08-22T08:04:40.625Z,101934.16
2022-08-22T08:07:10.583Z,101947.91
2022-08-22T08:09:49.893Z,101940.16
2022-08-22T08:12:20.368Z,101937.03
2022-08-22T08:14:52.932Z,101923.16
2022-08-22T08:17:30.044Z,101921.06
2022-08-22T08:20:03.462Z,101926.34
2022-08-22T08:22:31.197Z,101924.66
2022-08-22T08:25:00.187Z,101919.84
2022-08-22T08:27:50.499Z,101917.72
2022-08-22T08:30:23.442Z,101925.50
2022-08-22T08:32:59.543Z,101930.53
2022-08-22T08:36:02.373Z,101926.31
2022-08-22T08:38:39.360Z,101924.63
2022-08-22T08:41:14.495Z,101925.72
2022-08-22T08:44:18.414Z,101915.63
2022-08-22T08:47:24.766Z,101921.06
2022-08-22T08:50:05.077Z,101908.84
2022-08-22T08:53:13.063Z,101903.28
2022-08-22T08:55:51.774Z,101893.03
2022-08-22T08:58:31.856Z,101908.72
2022-08-22T09:01:17.063Z,101906.69
2022-08-22T09:04:04.834Z,101909.59
2022-08-22T09:07:07.779Z,101890.59
2022-08-22T09:09:57.303Z,101899.16
2022-08-22T09:12:52.190Z,101895.81
2022-08-22T09:15:59.661Z,101899.31
2022-08-22T09:18:40.615Z,101898.31
2022-08-22T09:21:31.151Z,101905.38
2022-08-22T09:24:23.364Z,101906.03
2022-08-22T09:26:57.392Z,101895.41
2022-08-22T09:29:54.536Z,101903.75
2022-08-22T09:32:52.657Z,101899.69
2022-08-22T09:35:26.968Z,101905.69
2022-08-22T09:37:53.700Z,101891.50
2022-08-22T09:40:30.868Z,101889.06
2022-08-22T09:43:06.577Z,101892.31
2022-08-22T09:45:40.295Z,101887.97
2022-08-22T09:48:26.526Z,101889.56
2022-08-22T09:51:31.627Z,101891.34
2022-08-22T09:54:17.147Z,101885.94
2022-08-22T09:56:53.477Z,101888.31
2022-08-22T09:59:31.651Z,101884.44
2022-08-22T10:02:45.426Z,101884.06
2022-08-22T10:05:40.282Z,101874.16
2022-08-22T10:08:32.163Z,101868.41
2022-08-22T10:11:04.222Z,101873.59
2022-08-22T10:13:38.332Z,101867.38
2022-08-22T10:16:24.596Z,101868.59
2022-08-22T10:19:19.427Z,101866.69
2022-08-22T10:22:23.936Z,101864.88
2022-08-22T10:25:37.363Z,101854.25
2022-08-22T10:28:18.680Z,101850.56
2022-08-22T10:31:00.826Z,101844.09
2022-08-22T10:33:33.086Z,101846.31
2022-08-22T10:36:08.069Z,101849.72
2022-08-22T10:38:54.772Z,101842.63
2022-08-22T10:41:39.489Z,101849.47
2022-08-22T10:44:19.881Z,101835.53
2022-08-22T10:46:55.283Z,101832.13
2022-08-22T10:49:51.261Z,101838.78
2022-08-22T10:52:43.275Z,101840.63
2022-08-22T10:55:19.646Z,101845.41
2022-08-22T10:58:06.291Z,101841.47
2022-08-22T11:00:49.986Z,101847.78
2022-08-22T11:03:53.070Z,101850.66
2022-08-22T11:06:27.906Z,101842.78
2022-08-22T11:09:07.124Z,101855.19
2022-08-22T11:11:46.489Z,101847.31
2022-08-22T11:14:42.379Z,101855.94
2022-08-22T11:17:31.755Z,101847.78
2022-08-22T11:20:22.750Z,101844.56
2022-08-22T11:23:24.007Z,101853.63
2022-08-22T11:25:53.777Z,101843.13
2022-08-22T11:28:57.495Z,101846.09
2022-08-22T11:32:12.717Z,101835.75
2022-08-22T11:34:48.312Z,101837.31
2022-08-22T11:37:43.302Z,101838.94
2022-08-22T11:40:32.268Z,101838.25
2022-08-22T11:43:17.986Z,101837.09
2022-08-22T11:45:50.956Z,101834.56
2022-08-22T11:49:02.486Z,101835.28
2022-08-22T11:52:10.666Z,101830.50
2022-08-22T11:55:08.373Z,101825.06
2022-08-22T11:57:46.104Z,101800.63
2022-08-22T12:00:20.998Z,101816.00
2022-08-22T12:03:14.563Z,101810.16
2022-08-22T12:06:23.089Z,101807.28
2022-08-22T12:09:25.447Z,101809.84
2022-08-22T12:12:29.675Z,101806.78
2022-08-22T12:15:03.907Z,101800.28
2022-08-22T12:17:55.576Z,101798.22
2022-08-22T12:20:52.453Z,101795.66
2022-08-22T12:23:43.496Z,101786.59
2022-08-22T12:26:17.182Z,101784.59
2022-08-22T12:28:59.790Z,101778.78
2022-08-22T12:31:56.729Z,101782.59
2022-08-22T12:34:52.742Z,101777.56
2022-08-22T12:37:29.703Z,101777.50
2022-08-22T12:40:21.380Z,101781.28
2022-08-22T12:43:21.999Z,101775.84
2022-08-22T12:46:28.849Z,101768.63
2022-08-22T12:49:20.414Z,101783.31
2022-08-22T12:52:38.269Z,101767.31
2022-08-22T12:55:13.920Z,101761.41
2022-08-22T12:58:00.865Z,101769.50
2022-08-22T13:00:34.986Z,101762.63
2022-08-22T13:03:09.694Z,101745.00
2022-08-22T13:05:40.867Z,101750.63
2022-08-22T13:08:29.772Z,101744.13
2022-08-22T13:11:01.830Z,101744.41
2022-08-22T13:13:36.844Z,101736.88
2022-08-22T13:16:08.527Z,101742.09
2022-08-22T13:18:53.695Z,101737.75
2022-08-22T13:21:26.326Z,101737.06
2022-08-22T13:24:04.736Z,101734.56
2022-08-22T13:26:35.297Z,101731.13
2022-08-22T13:29:39.560Z,101725.50
2022-08-22T13:32:02.714Z,101720.06
2022-08-22T13:34:48.250Z,101705.69
2022-08-22T13:37:36.531Z,101719.56
2022-08-22T13:40:08.846Z,101718.53
2022-08-22T13:42:50.281Z,101719.06
2022-08-22T13:45:29.796Z,101711.09
2022-08-22T13:48:03.593Z,101721.03
2022-08-22T13:50:37.591Z,101726.94
2022-08-22T13:53:49.005Z,101719.44
2022-08-22T13:56:32.646Z,101726.56
2022-08-22T13:59:05.776Z,101716.88
2022-08-22T14:01:53.656Z,101716.00
2022-08-22T14:04:32.118Z,101723.31
2022-08-22T14:07:03.618Z,101713.34
2022-08-22T14:09:54.430Z,101714.91
2022-08-22T14:12:28.720Z,101705.56
2022-08-22T14:15:07.496Z,101706.19
2022-08-22T14:17:43.750Z,101714.56
2022-08-22T14:20:32.520Z,101706.66
2022-08-22T14:23:04.931Z,101706.25
2022-08-22T14:25:37.753Z,101701.63
2022-08-22T14:28:11.070Z,101698.53
2022-08-22T14:31:02.490Z,101698.06
2022-08-22T14:33:39.904Z,101696.56
2022-08-22T14:36:18.876Z,101687.50
2022-08-22T14:39:07.093Z,101698.72
2022-08-22T14:41:52.598Z,101686.31
2022-08-22T14:44:31.321Z,101684.75
2022-08-22T14:47:02.190Z,101678.84
2022-08-22T14:49:51.607Z,101672.91
2022-08-22T14:52:30.782Z,101675.44
2022-08-22T14:55:09.406Z,101672.97
2022-08-22T14:57:42.975Z,101682.91
2022-08-22T15:00:12.412Z,101675.25
2022-08-22T15:02:40.807Z,101673.22
2022-08-22T15:05:18.327Z,101664.34
2022-08-22T15:07:55.019Z,101667.28
2022-08-22T15:10:34.371Z,101667.63
2022-08-22T15:13:05.187Z,101669.94
2022-08-22T15:15:49.850Z,101656.13
2022-08-22T15:18:23.416Z,101651.19
2022-08-22T15:21:02.177Z,101656.44
2022-08-22T15:23:31.924Z,101648.19
2022-08-22T15:26:03.662Z,101653.91
2022-08-22T15:28:35.872Z,101658.75
2022-08-22T15:31:20.091Z,101648.25
2022-08-22T15:33:48.379Z,101651.94
2022-08-22T15:36:27.167Z,101651.16
2022-08-22T15:39:18.309Z,101648.75
2022-08-22T15:41:49.363Z,101650.63
2022-08-22T15:44:32.441Z,101653.81
2022-08-22T15:47:34.994Z,101648.88
2022-08-22T15:50:08.190Z,101650.66
2022-08-22T15:53:09.693Z,101647.53
2022-08-22T15:55:37.086Z,101639.31
2022-08-22T15:58:12.869Z,101641.69
2022-08-22T16:00:45.355Z,101631.38
2022-08-22T16:03:27.036Z,101631.88
2022-08-22T16:06:00.174Z,101635.25
2022-08-22T16:08:48.705Z,101634.31
2022-08-22T16:11:29.693Z,101632.50
2022-08-22T16:14:38.240Z,101625.84
2022-08-22T16:17:30.191Z,101632.19
2022-08-22T16:20:25.546Z,101627.56
2022-08-22T16:22:57.761Z,101633.34
2022-08-22T16:25:43.036Z,101623.69
2022-08-22T16:28:54.370Z,101630.94
2022-08-22T16:31:45.808Z,101633.22
2022-08-22T16:34:24.380Z,101629.03
2022-08-22T16:37:14.349Z,101625.72
2022-08-22T16:39:59.814Z,101631.94
2022-08-22T16:42:35.904Z,101615.19
2022-08-22T16:45:20.739Z,101618.84
2022-08-22T16:47:58.189Z,101615.28
2022-08-22T16:50:32.488Z,101610.03
2022-08-22T16:53:01.138Z,101604.41
2022-08-22T16:55:30.507Z,101621.31
2022-08-22T16:58:55.807Z,101624.91
2022-08-22T17:01:36.320Z,101614.69
2022-08-22T17:04:13.228Z,101621.75
2022-08-22T17:07:01.575Z,101617.72
2022-08-22T17:09:49.214Z,101615.50
2022-08-22T17:12:42.349Z,101623.28
2022-08-22T17:15:33.758Z,101618.50
2022-08-22T17:18:30.812Z,101625.81
2022-08-22T17:21:04.546Z,101624.13
2022-08-22T17:23:58.201Z,101624.63
2022-08-22T17:26:55.308Z,101617.91
2022-08-22T17:29:33.093Z,101623.94
2022-08-22T17:32:34.746Z,101625.63
2022-08-22T17:35:26.172Z,101621.22
2022-08-22T17:38:07.751Z,101624.94
2022-08-22T17:40:53.435Z,101625.28
2022-08-22T17:43:33.520Z,101632.25
2022-08-22T17:46:43.522Z,101633.94
2022-08-22T17:49:35.011Z,101635.31
2022-08-22T17:52:12.365Z,101633.13
2022-08-22T17:54:47.279Z,101640.28
2022-08-22T17:57:27.798Z,101635.78
2022-08-22T18:00:11.463Z,101636.50
2022-08-22T18:02:45.247Z,101608.81
2022-08-22T18:05:19.763Z,101640.53
2022-08-22T18:08:37.365Z,101640.00
2022-08-22T18:11:00.280Z,101609.66
2022-08-22T18:13:45.605Z,101649.09
2022-08-22T18:16:23.171Z,101650.69
2022-08-22T18:18:54.208Z,101647.94
2022-08-22T18:21:39.019Z,101656.06
2022-08-22T18:24:20.334Z,101636.72
2022-08-22T18:27:02.791Z,101660.16
2022-08-22T18:29:55.020Z,101665.75
2022-08-22T18:32:28.402Z,101659.38
2022-08-22T18:35:10.115Z,101669.09
2022-08-22T18:37:37.097Z,101663.16
2022-08-22T18:40:22.838Z,101669.25
2022-08-22T18:43:02.265Z,101668.88
2022-08-22T18:45:46.790Z,101674.25
2022-08-22T18:48:29.403Z,101659.28
2022-08-22T18:51:22.430Z,101683.41
2022-08-22T18:53:53.255Z,101688.34
2022-08-22T18:56:44.875Z,101694.56
2022-08-22T18:59:45.791Z,101677.50
2022-08-22T19:02:37.062Z,101678.50
2022-08-22T19:05:20.952Z,101682.97
2022-08-22T19:08:06.990Z,101693.78
2022-08-22T19:10:39.008Z,101696.56
2022-08-22T19:13:24.909Z,101698.69
2022-08-22T19:16:07.387Z,101701.88
2022-08-22T19:19:06.284Z,101688.50
2022-08-22T19:22:22.370Z,101701.34
2022-08-22T19:25:13.498Z,101697.66
2022-08-22T19:27:46.882Z,101701.47
2022-08-22T19:30:45.799Z,101693.94
2022-08-22T19:33:16.748Z,101679.44
2022-08-22T19:35:45.506Z,101701.50
2022-08-22T19:38:32.251Z,101702.53
2022-08-22T19:40:58.746Z,101686.63
2022-08-22T19:43:28.092Z,101706.78
2022-08-22T19:45:56.263Z,101697.38
2022-08-22T19:48:31.410Z,101704.53
2022-08-22T19:51:24.847Z,101705.34
2022-08-22T19:54:16.742Z,101706.25
2022-08-22T19:57:07.190Z,101705.78
2022-08-22T19:59:52.947Z,101697.25
2022-08-22T20:02:35.101Z,101702.91
2022-08-22T20:05:19.488Z,101690.38
2022-08-22T20:08:13.375Z,101704.59
2022-08-22T20:10:42.912Z,101705.84
2022-08-22T20:13:27.988Z,101702.50
2022-08-22T20:16:09.576Z,101696.22
2022-08-22T20:19:06.423Z,101693.31
2022-08-22T20:21:51.903Z,101700.44
2022-08-22T20:24:40.025Z,101682.63
2022-08-22T20:27:17.089Z,101690.78
2022-08-22T20:29:52.963Z,101664.78
2022-08-22T20:32:23.080Z,101699.38
2022-08-22T20:34:56.882Z,101700.63
2022-08-22T20:37:45.466Z,101704.19
2022-08-22T20:40:32.284Z,101693.28
2022-08-22T20:43:13.830Z,101684.50
2022-08-22T20:46:02.050Z,101700.41
2022-08-22T20:48:37.667Z,101700.41
2022-08-22T20:51:06.127Z,101684.91
2022-08-22T20:53:34.475Z,101694.34
2022-08-22T20:56:01.159Z,101697.50
2022-08-22T20:58:35.514Z,101691.19
2022-08-22T21:01:06.315Z,101693.28
2022-08-22T21:03:47.264Z,101688.28
2022-08-22T21:06:13.780Z,101689.31
2022-08-22T21:08:41.584Z,101681.56
2022-08-22T21:11:28.146Z,101692.88
2022-08-22T21:13:55.461Z,101685.31
2022-08-22T21:16:33.048Z,101689.97
2022-08-22T21:19:04.276Z,101688.66
2022-08-22T21:21:33.895Z,101687.00
2022-08-22T21:24:09.305Z,101683.22
2022-08-22T21:26:46.072Z,101679.25
2022-08-22T21:29:12.398Z,101685.75
2022-08-22T21:32:04.432Z,101696.63
2022-08-22T21:34:36.856Z,101694.09
2022-08-22T21:37:18.125Z,101678.00
2022-08-22T21:39:49.776Z,101683.84
2022-08-22T21:42:40.350Z,101696.22
2022-08-22T21:45:25.484Z,101693.28
2022-08-22T21:47:52.940Z,101686.13
2022-08-22T21:50:25.269Z,101695.53
2022-08-22T21:52:54.716Z,101696.34
2022-08-22T21:55:42.719Z,101697.75
2022-08-22T21:58:32.625Z,101705.47
2022-08-22T22:01:24.830Z,101701.44
2022-08-22T22:03:51.920Z,101699.72
2022-08-22T22:06:18.500Z,101704.56
2022-08-22T22:08:45.029Z,101705.19
2022-08-22T22:11:14.223Z,101695.56
2022-08-22T22:13:41.414Z,101706.47
2022-08-22T22:16:09.977Z,101693.47
2022-08-22T22:18:38.227Z,101702.00
2022-08-22T22:21:04.917Z,101688.00
2022-08-22T22:23:31.495Z,101687.97
2022-08-22T22:26:01.399Z,101695.06
2022-08-22T22:28:34.374Z,101687.06
2022-08-22T22:31:01.096Z,101690.78
2022-08-22T22:33:30.416Z,101689.47
2022-08-22T22:35:59.895Z,101691.34
2022-08-22T22:38:26.410Z,101690.66
2022-08-22T22:40:53.232Z,101680.97
2022-08-22T22:43:19.755Z,101690.13
2022-08-22T22:45:46.213Z,101674.28
2022-08-22T22:48:18.209Z,101693.38
2022-08-22T22:50:50.873Z,101696.34
2022-08-22T22:53:19.919Z,101700.44
2022-08-22T22:55:59.674Z,101700.25
2022-08-22T22:58:27.854Z,101692.72
2022-08-22T23:00:54.807Z,101697.09
2022-08-22T23:03:21.442Z,101699.03
2022-08-22T23:05:47.863Z,101697.97
2022-08-22T23:08:14.269Z,101692.16
2022-08-22T23:10:40.655Z,101689.69
2022-08-22T23:13:07.150Z,101700.06
2022-08-22T23:15:33.562Z,101697.28
2022-08-22T23:18:00.100Z,101701.63
2022-08-22T23:20:26.667Z,101702.81
2022-08-22T23:22:53.129Z,101708.81
2022-08-22T23:25:19.631Z,101682.47
2022-08-22T23:27:52.146Z,101706.69
2022-08-22T23:30:19.991Z,101708.00
2022-08-22T23:32:46.405Z,101701.81
2022-08-22T23:35:12.822Z,101697.25
2022-08-22T23:37:39.242Z,101687.63
2022-08-22T23:40:08.558Z,101699.59
2022-08-22T23:42:35.354Z,101704.88
2022-08-22T23:45:01.759Z,101708.50
2022-08-22T23:47:28.187Z,101701.38
2022-08-22T23:49:54.587Z,101706.38
2022-08-22T23:52:20.998Z,101700.22
2022-08-22T23:54:47.717Z,101696.78
2022-08-22T23:57:20.775Z,101681.28
2022-08-22T23:59:57.902Z,101691.50
